Turaif, Saudi Arabia
Current Conditions -  °F | °C
As of 6:00 PM on Tuesday 21 Oct 2014 (Local Time) from OETR Reporting Station
Clear Clear  
Wind Chill: 64°   Ceiling: Unl
Heat Index: 64°   Visibility: 6mi
Dew Point: 39°   Wind: 5mph
Humidity: 40%   Direction: 270°W
Pressure: 30.03"   Gusts: NA
Location:  31.69°N, 38.73°E
Report Text: OETR 211500Z 27004KT CAVOK 18/04 Q1017
Loading
Personal Weather Stations






























Interactive Weather Map
Tropical Storm Tracking
New forecast layout! Learn more

10-Day Weather Forecast

Advertisements
Track Severe Weather on mobile